sensor_id;sensor_type;location;lat;lon;timestamp;pressure;altitude;pressure_sealevel;temperature;humidity
50105;BME280;47690;39.202;-77.198;2023-02-12T00:00:32;101048.88;;;32.90;6.18
50105;BME280;47690;39.202;-77.198;2023-02-12T00:03:38;101059.97;;;32.95;6.29
50105;BME280;47690;39.202;-77.198;2023-02-12T00:06:45;101071.38;;;32.87;6.87
50105;BME280;47690;39.202;-77.198;2023-02-12T00:09:50;101063.91;;;32.63;6.35
50105;BME280;47690;39.202;-77.198;2023-02-12T00:13:14;101089.22;;;32.59;6.48
50105;BME280;47690;39.202;-77.198;2023-02-12T00:16:30;101095.72;;;32.46;6.90
50105;BME280;47690;39.202;-77.198;2023-02-12T00:20:12;101079.41;;;32.77;6.63
50105;BME280;47690;39.202;-77.198;2023-02-12T00:23:21;101076.38;;;32.34;6.58
50105;BME280;47690;39.202;-77.198;2023-02-12T00:27:00;101077.06;;;32.46;6.39
50105;BME280;47690;39.202;-77.198;2023-02-12T00:30:32;101081.13;;;32.50;6.56
50105;BME280;47690;39.202;-77.198;2023-02-12T00:33:33;101084.59;;;32.23;7.07
50105;BME280;47690;39.202;-77.198;2023-02-12T00:36:35;101076.78;;;31.92;6.90
50105;BME280;47690;39.202;-77.198;2023-02-12T00:43:06;101074.16;;;33.14;6.63
50105;BME280;47690;39.202;-77.198;2023-02-12T00:46:07;101069.41;;;32.23;6.96
50105;BME280;47690;39.202;-77.198;2023-02-12T00:49:17;101071.75;;;31.98;7.32
50105;BME280;47690;39.202;-77.198;2023-02-12T00:52:22;101066.84;;;31.94;7.01
50105;BME280;47690;39.202;-77.198;2023-02-12T00:55:24;101071.19;;;31.65;7.06
50105;BME280;47690;39.202;-77.198;2023-02-12T00:58:48;101075.97;;;31.71;7.21
50105;BME280;47690;39.202;-77.198;2023-02-12T01:02:07;101071.06;;;31.67;7.38
50105;BME280;47690;39.202;-77.198;2023-02-12T01:05:37;101068.84;;;31.62;7.12
50105;BME280;47690;39.202;-77.198;2023-02-12T01:08:45;101061.97;;;31.50;7.43
50105;BME280;47690;39.202;-77.198;2023-02-12T01:11:50;101051.06;;;31.43;7.10
50105;BME280;47690;39.202;-77.198;2023-02-12T01:14:56;101074.59;;;31.38;7.55
50105;BME280;47690;39.202;-77.198;2023-02-12T01:18:14;101089.16;;;31.43;7.17
50105;BME280;47690;39.202;-77.198;2023-02-12T01:22:04;101091.25;;;31.69;7.24
50105;BME280;47690;39.202;-77.198;2023-02-12T01:25:16;101110.75;;;31.60;7.00
50105;BME280;47690;39.202;-77.198;2023-02-12T01:28:50;101103.56;;;31.51;7.47
50105;BME280;47690;39.202;-77.198;2023-02-12T01:31:50;101126.97;;;31.37;7.15
50105;BME280;47690;39.202;-77.198;2023-02-12T01:34:50;101119.56;;;31.31;7.34
50105;BME280;47690;39.202;-77.198;2023-02-12T01:38:04;101117.16;;;31.28;7.46
50105;BME280;47690;39.202;-77.198;2023-02-12T01:41:17;101104.03;;;32.33;6.46
50105;BME280;47690;39.202;-77.198;2023-02-12T01:44:35;101087.69;;;32.56;6.70
50105;BME280;47690;39.202;-77.198;2023-02-12T01:47:44;101062.41;;;32.60;6.68
50105;BME280;47690;39.202;-77.198;2023-02-12T01:50:53;101078.75;;;32.47;6.94
50105;BME280;47690;39.202;-77.198;2023-02-12T01:54:06;101090.69;;;32.43;7.19
50105;BME280;47690;39.202;-77.198;2023-02-12T01:57:17;101074.41;;;32.36;6.91
50105;BME280;47690;39.202;-77.198;2023-02-12T02:00:25;101108.81;;;32.29;6.84
50105;BME280;47690;39.202;-77.198;2023-02-12T02:03:56;101106.69;;;32.43;6.69
50105;BME280;47690;39.202;-77.198;2023-02-12T02:07:03;101102.34;;;32.42;6.96
50105;BME280;47690;39.202;-77.198;2023-02-12T02:10:05;101103.34;;;32.31;7.16
50105;BME280;47690;39.202;-77.198;2023-02-12T02:13:18;101093.28;;;32.15;7.06
50105;BME280;47690;39.202;-77.198;2023-02-12T02:17:27;101083.03;;;32.20;7.07
50105;BME280;47690;39.202;-77.198;2023-02-12T02:21:04;101071.75;;;31.98;7.29
50105;BME280;47690;39.202;-77.198;2023-02-12T02:34:38;101040.22;;;31.94;6.87
50105;BME280;47690;39.202;-77.198;2023-02-12T02:43:59;101033.03;;;32.04;7.04
50105;BME280;47690;39.202;-77.198;2023-02-12T02:47:46;101031.25;;;31.85;7.08
50105;BME280;47690;39.202;-77.198;2023-02-12T02:51:58;101025.94;;;31.85;6.79
50105;BME280;47690;39.202;-77.198;2023-02-12T02:55:45;101013.84;;;31.91;6.88
50105;BME280;47690;39.202;-77.198;2023-02-12T02:59:27;101001.94;;;31.95;7.50
50105;BME280;47690;39.202;-77.198;2023-02-12T03:03:11;100999.44;;;31.83;7.59
50105;BME280;47690;39.202;-77.198;2023-02-12T03:07:03;100993.28;;;31.73;7.25
50105;BME280;47690;39.202;-77.198;2023-02-12T03:10:45;101009.66;;;31.78;7.07
50105;BME280;47690;39.202;-77.198;2023-02-12T03:17:13;100995.72;;;31.56;7.47
50105;BME280;47690;39.202;-77.198;2023-02-12T03:20:50;101005.09;;;31.51;7.56
50105;BME280;47690;39.202;-77.198;2023-02-12T03:24:43;101001.16;;;31.55;7.52
50105;BME280;47690;39.202;-77.198;2023-02-12T03:28:26;101000.03;;;31.57;7.41
50105;BME280;47690;39.202;-77.198;2023-02-12T03:32:12;100983.50;;;31.54;7.42
50105;BME280;47690;39.202;-77.198;2023-02-12T03:39:56;100989.72;;;31.34;7.09
50105;BME280;47690;39.202;-77.198;2023-02-12T03:43:08;100978.78;;;31.28;7.48
50105;BME280;47690;39.202;-77.198;2023-02-12T03:47:22;100975.00;;;31.40;7.52
50105;BME280;47690;39.202;-77.198;2023-02-12T03:54:37;100939.56;;;31.20;7.29
50105;BME280;47690;39.202;-77.198;2023-02-12T03:57:56;100946.44;;;31.13;7.55
50105;BME280;47690;39.202;-77.198;2023-02-12T04:01:16;100946.25;;;31.14;7.64
50105;BME280;47690;39.202;-77.198;2023-02-12T04:04:33;100941.66;;;31.94;7.19
50105;BME280;47690;39.202;-77.198;2023-02-12T04:08:10;100947.63;;;31.48;7.64
50105;BME280;47690;39.202;-77.198;2023-02-12T04:19:47;100938.72;;;31.10;7.94
50105;BME280;47690;39.202;-77.198;2023-02-12T04:33:36;100933.69;;;30.97;7.87
50105;BME280;47690;39.202;-77.198;2023-02-12T04:37:08;100936.09;;;30.90;7.74
50105;BME280;47690;39.202;-77.198;2023-02-12T04:40:40;100934.09;;;31.12;7.82
50105;BME280;47690;39.202;-77.198;2023-02-12T04:43:50;100931.25;;;30.34;7.73
50105;BME280;47690;39.202;-77.198;2023-02-12T04:47:26;100937.63;;;29.91;8.54
50105;BME280;47690;39.202;-77.198;2023-02-12T04:50:42;100933.16;;;29.60;8.51
50105;BME280;47690;39.202;-77.198;2023-02-12T04:54:13;100931.72;;;29.56;8.29
50105;BME280;47690;39.202;-77.198;2023-02-12T04:57:16;100916.47;;;29.48;8.44
50105;BME280;47690;39.202;-77.198;2023-02-12T05:00:16;100907.13;;;29.33;8.64
50105;BME280;47690;39.202;-77.198;2023-02-12T05:04:11;100907.53;;;29.49;8.83
50105;BME280;47690;39.202;-77.198;2023-02-12T05:07:10;100920.63;;;29.29;8.48
50105;BME280;47690;39.202;-77.198;2023-02-12T05:10:13;100919.94;;;29.27;8.82
50105;BME280;47690;39.202;-77.198;2023-02-12T05:13:37;100916.44;;;29.27;8.38
50105;BME280;47690;39.202;-77.198;2023-02-12T05:16:37;100925.63;;;29.23;8.87
50105;BME280;47690;39.202;-77.198;2023-02-12T05:19:48;100918.66;;;29.22;8.54
50105;BME280;47690;39.202;-77.198;2023-02-12T05:23:02;100911.28;;;29.25;8.70
50105;BME280;47690;39.202;-77.198;2023-02-12T05:26:34;100907.72;;;29.36;8.83
50105;BME280;47690;39.202;-77.198;2023-02-12T05:29:41;100911.00;;;29.28;8.66
50105;BME280;47690;39.202;-77.198;2023-02-12T05:33:36;100908.88;;;29.43;9.04
50105;BME280;47690;39.202;-77.198;2023-02-12T05:36:40;100908.28;;;29.18;8.85
50105;BME280;47690;39.202;-77.198;2023-02-12T05:40:15;100898.72;;;29.27;9.14
50105;BME280;47690;39.202;-77.198;2023-02-12T05:43:41;100901.25;;;29.29;8.82
50105;BME280;47690;39.202;-77.198;2023-02-12T05:46:54;100890.91;;;29.47;8.67
50105;BME280;47690;39.202;-77.198;2023-02-12T05:49:58;100900.53;;;29.48;8.37
50105;BME280;47690;39.202;-77.198;2023-02-12T05:53:16;100889.47;;;30.05;8.31
50105;BME280;47690;39.202;-77.198;2023-02-12T05:56:46;100898.69;;;29.70;8.93
50105;BME280;47690;39.202;-77.198;2023-02-12T05:59:52;100854.38;;;29.61;8.39
50105;BME280;47690;39.202;-77.198;2023-02-12T06:03:18;100848.91;;;29.62;8.73
50105;BME280;47690;39.202;-77.198;2023-02-12T06:07:09;100823.22;;;29.63;8.54
50105;BME280;47690;39.202;-77.198;2023-02-12T06:10:12;100812.69;;;29.51;8.67
50105;BME280;47690;39.202;-77.198;2023-02-12T06:13:16;100797.09;;;29.37;8.36
50105;BME280;47690;39.202;-77.198;2023-02-12T06:16:26;100793.56;;;29.26;8.66
50105;BME280;47690;39.202;-77.198;2023-02-12T06:19:36;100777.66;;;29.26;8.94
50105;BME280;47690;39.202;-77.198;2023-02-12T06:22:42;100793.56;;;29.26;8.88
50105;BME280;47690;39.202;-77.198;2023-02-12T06:26:33;100787.50;;;29.87;8.68
50105;BME280;47690;39.202;-77.198;2023-02-12T06:30:09;100805.19;;;30.37;8.49
50105;BME280;47690;39.202;-77.198;2023-02-12T06:33:21;100805.88;;;29.58;8.61
50105;BME280;47690;39.202;-77.198;2023-02-12T06:36:36;100833.22;;;29.49;8.68
50105;BME280;47690;39.202;-77.198;2023-02-12T06:39:41;100826.31;;;29.68;8.71
50105;BME280;47690;39.202;-77.198;2023-02-12T06:42:58;100816.25;;;30.12;8.59
50105;BME280;47690;39.202;-77.198;2023-02-12T06:46:50;100827.47;;;29.75;9.09
50105;BME280;47690;39.202;-77.198;2023-02-12T06:49:50;100820.66;;;29.51;8.53
50105;BME280;47690;39.202;-77.198;2023-02-12T06:52:53;100815.56;;;29.38;9.04
50105;BME280;47690;39.202;-77.198;2023-02-12T06:56:10;100841.19;;;29.49;8.76
50105;BME280;47690;39.202;-77.198;2023-02-12T06:59:44;100842.38;;;29.66;9.14
50105;BME280;47690;39.202;-77.198;2023-02-12T07:03:12;100848.22;;;29.60;8.93
50105;BME280;47690;39.202;-77.198;2023-02-12T07:06:22;100862.88;;;29.54;9.22
50105;BME280;47690;39.202;-77.198;2023-02-12T07:09:43;100841.47;;;29.46;8.70
50105;BME280;47690;39.202;-77.198;2023-02-12T07:12:49;100846.53;;;29.38;9.07
50105;BME280;47690;39.202;-77.198;2023-02-12T07:15:53;100835.09;;;29.37;8.92
50105;BME280;47690;39.202;-77.198;2023-02-12T07:19:30;100831.75;;;29.35;8.80
50105;BME280;47690;39.202;-77.198;2023-02-12T07:22:40;100815.38;;;29.30;9.00
50105;BME280;47690;39.202;-77.198;2023-02-12T07:26:01;100829.47;;;29.30;8.94
50105;BME280;47690;39.202;-77.198;2023-02-12T07:29:43;100824.03;;;29.32;9.27
50105;BME280;47690;39.202;-77.198;2023-02-12T07:32:49;100811.44;;;29.24;9.33
50105;BME280;47690;39.202;-77.198;2023-02-12T07:36:18;100800.09;;;29.22;9.12
50105;BME280;47690;39.202;-77.198;2023-02-12T07:39:21;100797.28;;;29.14;9.22
50105;BME280;47690;39.202;-77.198;2023-02-12T07:42:41;100785.31;;;29.20;8.83
50105;BME280;47690;39.202;-77.198;2023-02-12T07:45:53;100780.84;;;29.20;9.06
50105;BME280;47690;39.202;-77.198;2023-02-12T07:49:25;100753.13;;;29.85;8.76
50105;BME280;47690;39.202;-77.198;2023-02-12T07:52:34;100731.88;;;29.34;8.78
50105;BME280;47690;39.202;-77.198;2023-02-12T07:56:12;100710.66;;;29.34;8.98
50105;BME280;47690;39.202;-77.198;2023-02-12T07:59:25;100695.16;;;29.29;8.94
50105;BME280;47690;39.202;-77.198;2023-02-12T08:02:32;100684.22;;;29.13;9.13
50105;BME280;47690;39.202;-77.198;2023-02-12T08:05:45;100701.81;;;29.65;8.92
50105;BME280;47690;39.202;-77.198;2023-02-12T08:09:18;100675.50;;;29.42;9.16
50105;BME280;47690;39.202;-77.198;2023-02-12T08:12:25;100644.72;;;29.10;9.59
50105;BME280;47690;39.202;-77.198;2023-02-12T08:16:05;100654.94;;;29.24;9.49
50105;BME280;47690;39.202;-77.198;2023-02-12T08:19:45;100654.13;;;29.34;9.00
50105;BME280;47690;39.202;-77.198;2023-02-12T08:22:49;100643.72;;;29.11;9.53
50105;BME280;47690;39.202;-77.198;2023-02-12T08:25:49;100625.44;;;29.08;9.42
50105;BME280;47690;39.202;-77.198;2023-02-12T08:29:34;100638.88;;;29.26;9.55
50105;BME280;47690;39.202;-77.198;2023-02-12T08:32:42;100641.91;;;29.11;9.03
50105;BME280;47690;39.202;-77.198;2023-02-12T08:36:38;100649.63;;;29.24;9.51
50105;BME280;47690;39.202;-77.198;2023-02-12T08:40:10;100674.50;;;29.23;9.57
50105;BME280;47690;39.202;-77.198;2023-02-12T08:43:20;100673.06;;;29.70;9.18
50105;BME280;47690;39.202;-77.198;2023-02-12T08:46:42;100671.16;;;29.41;9.21
50105;BME280;47690;39.202;-77.198;2023-02-12T08:50:42;100666.09;;;30.08;9.09
50105;BME280;47690;39.202;-77.198;2023-02-12T08:54:12;100649.94;;;29.41;9.46
50105;BME280;47690;39.202;-77.198;2023-02-12T08:57:15;100643.16;;;29.07;9.64
50105;BME280;47690;39.202;-77.198;2023-02-12T09:00:26;100637.00;;;29.07;9.03
50105;BME280;47690;39.202;-77.198;2023-02-12T09:03:41;100644.56;;;29.82;9.27
50105;BME280;47690;39.202;-77.198;2023-02-12T09:07:10;100648.53;;;29.37;9.39
50105;BME280;47690;39.202;-77.198;2023-02-12T09:10:44;100649.06;;;29.21;9.45
50105;BME280;47690;39.202;-77.198;2023-02-12T09:13:50;100650.44;;;29.15;8.98
50105;BME280;47690;39.202;-77.198;2023-02-12T09:20:45;100660.66;;;29.29;9.30
50105;BME280;47690;39.202;-77.198;2023-02-12T09:23:44;100661.19;;;29.94;9.00
50105;BME280;47690;39.202;-77.198;2023-02-12T09:27:18;100661.56;;;29.60;8.80
50105;BME280;47690;39.202;-77.198;2023-02-12T09:30:39;100662.66;;;29.37;9.05
50105;BME280;47690;39.202;-77.198;2023-02-12T09:34:05;100654.97;;;29.44;9.14
50105;BME280;47690;39.202;-77.198;2023-02-12T09:38:10;100647.25;;;29.21;9.69
50105;BME280;47690;39.202;-77.198;2023-02-12T09:46:55;100641.41;;;29.37;9.79
50105;BME280;47690;39.202;-77.198;2023-02-12T09:50:45;100628.50;;;30.61;8.78
50105;BME280;47690;39.202;-77.198;2023-02-12T09:54:11;100646.88;;;29.45;9.35
50105;BME280;47690;39.202;-77.198;2023-02-12T09:57:36;100656.06;;;29.31;9.78
50105;BME280;47690;39.202;-77.198;2023-02-12T10:00:46;100663.31;;;29.20;9.73
50105;BME280;47690;39.202;-77.198;2023-02-12T10:04:17;100653.97;;;29.45;9.30
50105;BME280;47690;39.202;-77.198;2023-02-12T10:25:53;100600.69;;;29.48;9.12
50105;BME280;47690;39.202;-77.198;2023-02-12T10:29:44;100588.41;;;29.47;9.19
50105;BME280;47690;39.202;-77.198;2023-02-12T10:33:26;100554.72;;;29.57;9.54
50105;BME280;47690;39.202;-77.198;2023-02-12T10:36:49;100545.06;;;29.37;9.35
50105;BME280;47690;39.202;-77.198;2023-02-12T10:40:26;100540.06;;;29.43;9.61
50105;BME280;47690;39.202;-77.198;2023-02-12T10:44:05;100526.34;;;29.38;9.26
50105;BME280;47690;39.202;-77.198;2023-02-12T10:47:26;100523.38;;;30.10;9.25
50105;BME280;47690;39.202;-77.198;2023-02-12T10:51:49;100551.88;;;30.84;8.58
50105;BME280;47690;39.202;-77.198;2023-02-12T10:55:23;100553.59;;;29.90;9.44
50105;BME280;47690;39.202;-77.198;2023-02-12T10:58:26;100562.00;;;29.75;9.38
50105;BME280;47690;39.202;-77.198;2023-02-12T11:01:56;100551.94;;;29.49;9.84
50105;BME280;47690;39.202;-77.198;2023-02-12T11:05:24;100550.28;;;29.58;9.69
50105;BME280;47690;39.202;-77.198;2023-02-12T11:08:50;100545.94;;;29.47;9.47
50105;BME280;47690;39.202;-77.198;2023-02-12T11:20:52;100504.00;;;29.80;9.31
50105;BME280;47690;39.202;-77.198;2023-02-12T11:24:45;100497.34;;;29.56;9.48
50105;BME280;47690;39.202;-77.198;2023-02-12T11:32:37;100510.16;;;29.61;9.80
50105;BME280;47690;39.202;-77.198;2023-02-12T11:36:36;100504.09;;;30.46;9.14
50105;BME280;47690;39.202;-77.198;2023-02-12T11:41:26;100507.38;;;30.58;8.95
50105;BME280;47690;39.202;-77.198;2023-02-12T11:45:29;100506.66;;;29.80;9.08
50105;BME280;47690;39.202;-77.198;2023-02-12T11:49:01;100503.72;;;29.74;9.52
50105;BME280;47690;39.202;-77.198;2023-02-12T11:52:33;100515.28;;;29.92;9.54
50105;BME280;47690;39.202;-77.198;2023-02-12T11:56:45;100524.88;;;30.03;9.30
50105;BME280;47690;39.202;-77.198;2023-02-12T12:01:33;100521.25;;;30.04;9.51
50105;BME280;47690;39.202;-77.198;2023-02-12T12:05:15;100525.94;;;29.82;9.52
50105;BME280;47690;39.202;-77.198;2023-02-12T12:08:28;100528.75;;;29.71;9.65
50105;BME280;47690;39.202;-77.198;2023-02-12T12:15:46;100511.38;;;29.96;9.25
50105;BME280;47690;39.202;-77.198;2023-02-12T12:20:16;100503.84;;;30.30;9.37
50105;BME280;47690;39.202;-77.198;2023-02-12T12:24:08;100510.81;;;29.93;9.14
50105;BME280;47690;39.202;-77.198;2023-02-12T12:27:26;100523.25;;;29.92;9.31
50105;BME280;47690;39.202;-77.198;2023-02-12T12:34:24;100525.63;;;29.95;9.25
50105;BME280;47690;39.202;-77.198;2023-02-12T12:37:52;100543.94;;;30.08;9.42
50105;BME280;47690;39.202;-77.198;2023-02-12T12:49:37;100541.50;;;30.25;9.51
50105;BME280;47690;39.202;-77.198;2023-02-12T12:53:33;100569.19;;;30.22;9.23
50105;BME280;47690;39.202;-77.198;2023-02-12T12:57:49;100560.75;;;30.37;9.38
50105;BME280;47690;39.202;-77.198;2023-02-12T13:38:02;100479.72;;;31.33;9.01
50105;BME280;47690;39.202;-77.198;2023-02-12T13:41:03;100480.59;;;30.70;9.29
50105;BME280;47690;39.202;-77.198;2023-02-12T13:44:52;100481.16;;;30.91;9.31
50105;BME280;47690;39.202;-77.198;2023-02-12T13:52:05;100483.59;;;30.85;9.18
50105;BME280;47690;39.202;-77.198;2023-02-12T13:55:36;100477.22;;;30.96;9.08
50105;BME280;47690;39.202;-77.198;2023-02-12T14:05:35;100447.28;;;31.12;9.22
50105;BME280;47690;39.202;-77.198;2023-02-12T14:09:08;100441.63;;;31.15;9.20
50105;BME280;47690;39.202;-77.198;2023-02-12T14:12:35;100428.34;;;31.33;9.15
50105;BME280;47690;39.202;-77.198;2023-02-12T14:15:45;100419.59;;;31.23;9.11
50105;BME280;47690;39.202;-77.198;2023-02-12T14:26:09;100361.09;;;31.49;9.40
50105;BME280;47690;39.202;-77.198;2023-02-12T14:29:21;100356.03;;;31.38;9.17
50105;BME280;47690;39.202;-77.198;2023-02-12T14:39:42;100340.34;;;31.61;9.00
50105;BME280;47690;39.202;-77.198;2023-02-12T14:42:55;100340.53;;;31.68;9.39
50105;BME280;47690;39.202;-77.198;2023-02-12T14:49:45;100343.66;;;31.89;8.94
50105;BME280;47690;39.202;-77.198;2023-02-12T14:52:53;100354.97;;;31.92;9.31
50105;BME280;47690;39.202;-77.198;2023-02-12T14:55:58;100354.94;;;31.83;9.06
50105;BME280;47690;39.202;-77.198;2023-02-12T14:59:33;100356.16;;;31.97;9.15
50105;BME280;47690;39.202;-77.198;2023-02-12T15:06:40;100354.56;;;32.29;8.91
50105;BME280;47690;39.202;-77.198;2023-02-12T15:09:51;100343.03;;;32.04;8.83
50105;BME280;47690;39.202;-77.198;2023-02-12T15:13:23;100328.63;;;32.40;8.86
50105;BME280;47690;39.202;-77.198;2023-02-12T15:16:43;100320.00;;;32.71;8.93
50105;BME280;47690;39.202;-77.198;2023-02-12T15:20:18;100324.31;;;32.80;9.09
50105;BME280;47690;39.202;-77.198;2023-02-12T15:23:42;100320.47;;;32.91;8.46
50105;BME280;47690;39.202;-77.198;2023-02-12T15:26:50;100314.81;;;32.78;8.86
50105;BME280;47690;39.202;-77.198;2023-02-12T15:29:58;100307.81;;;32.77;9.04
50105;BME280;47690;39.202;-77.198;2023-02-12T15:33:27;100310.13;;;32.80;8.92
50105;BME280;47690;39.202;-77.198;2023-02-12T15:36:36;100312.81;;;32.47;8.70
50105;BME280;47690;39.202;-77.198;2023-02-12T15:40:11;100295.97;;;32.54;9.00
50105;BME280;47690;39.202;-77.198;2023-02-12T15:43:27;100268.66;;;32.52;8.94
50105;BME280;47690;39.202;-77.198;2023-02-12T15:46:34;100260.97;;;32.74;8.47
50105;BME280;47690;39.202;-77.198;2023-02-12T15:49:42;100245.53;;;32.45;8.95
50105;BME280;47690;39.202;-77.198;2023-02-12T15:52:51;100241.50;;;32.49;9.03
50105;BME280;47690;39.202;-77.198;2023-02-12T15:55:54;100237.00;;;32.66;8.38
50105;BME280;47690;39.202;-77.198;2023-02-12T15:59:01;100240.84;;;32.55;9.11
50105;BME280;47690;39.202;-77.198;2023-02-12T16:02:24;100238.00;;;32.65;8.75
50105;BME280;47690;39.202;-77.198;2023-02-12T16:06:04;100224.47;;;32.66;8.68
50105;BME280;47690;39.202;-77.198;2023-02-12T16:09:14;100209.69;;;32.55;9.04
50105;BME280;47690;39.202;-77.198;2023-02-12T16:12:42;100199.00;;;32.64;8.82
50105;BME280;47690;39.202;-77.198;2023-02-12T16:23:18;100146.84;;;32.69;8.67
50105;BME280;47690;39.202;-77.198;2023-02-12T16:26:46;100127.50;;;32.59;8.22
50105;BME280;47690;39.202;-77.198;2023-02-12T16:30:35;100108.47;;;32.79;8.66
50105;BME280;47690;39.202;-77.198;2023-02-12T16:33:51;100090.19;;;32.67;8.33
50105;BME280;47690;39.202;-77.198;2023-02-12T16:44:26;100095.84;;;32.64;8.33
50105;BME280;47690;39.202;-77.198;2023-02-12T16:47:50;100075.84;;;32.68;8.23
50105;BME280;47690;39.202;-77.198;2023-02-12T16:51:47;100077.75;;;32.91;8.57
50105;BME280;47690;39.202;-77.198;2023-02-12T16:54:53;100068.25;;;32.89;8.04
50105;BME280;47690;39.202;-77.198;2023-02-12T16:58:25;100050.00;;;33.09;8.08
50105;BME280;47690;39.202;-77.198;2023-02-12T17:01:35;100040.53;;;32.98;8.20
50105;BME280;47690;39.202;-77.198;2023-02-12T17:04:54;100041.38;;;32.99;8.14
50105;BME280;47690;39.202;-77.198;2023-02-12T17:08:01;100032.00;;;33.03;8.30
50105;BME280;47690;39.202;-77.198;2023-02-12T17:11:10;100051.22;;;32.90;8.19
50105;BME280;47690;39.202;-77.198;2023-02-12T17:14:38;100036.88;;;32.99;8.29
50105;BME280;47690;39.202;-77.198;2023-02-12T17:17:49;100037.22;;;32.96;8.38
50105;BME280;47690;39.202;-77.198;2023-02-12T17:21:50;100035.16;;;33.06;8.03
50105;BME280;47690;39.202;-77.198;2023-02-12T17:25:26;100037.19;;;33.28;8.38
50105;BME280;47690;39.202;-77.198;2023-02-12T17:28:42;100030.06;;;33.20;7.94
50105;BME280;47690;39.202;-77.198;2023-02-12T17:32:05;99998.91;;;33.20;8.04
50105;BME280;47690;39.202;-77.198;2023-02-12T17:35:22;99999.00;;;33.27;8.20
50105;BME280;47690;39.202;-77.198;2023-02-12T17:38:54;100002.56;;;33.19;8.38
50105;BME280;47690;39.202;-77.198;2023-02-12T17:41:49;99997.34;;;33.26;8.46
50105;BME280;47690;39.202;-77.198;2023-02-12T17:45:22;99989.88;;;33.45;7.72
50105;BME280;47690;39.202;-77.198;2023-02-12T17:48:22;99981.91;;;33.36;7.84
50105;BME280;47690;39.202;-77.198;2023-02-12T17:52:07;99976.03;;;33.41;8.44
50105;BME280;47690;39.202;-77.198;2023-02-12T17:55:17;99965.53;;;33.40;8.57
50105;BME280;47690;39.202;-77.198;2023-02-12T17:58:25;99964.44;;;33.34;8.11
50105;BME280;47690;39.202;-77.198;2023-02-12T18:01:34;99956.75;;;33.31;7.80
50105;BME280;47690;39.202;-77.198;2023-02-12T18:04:42;99950.16;;;33.27;8.19
50105;BME280;47690;39.202;-77.198;2023-02-12T18:07:54;99933.47;;;33.24;8.13
50105;BME280;47690;39.202;-77.198;2023-02-12T18:11:04;99923.00;;;33.23;8.34
50105;BME280;47690;39.202;-77.198;2023-02-12T18:14:14;99909.75;;;33.30;8.32
50105;BME280;47690;39.202;-77.198;2023-02-12T18:17:49;99897.19;;;33.54;7.96
50105;BME280;47690;39.202;-77.198;2023-02-12T18:21:18;99877.75;;;33.45;8.52
50105;BME280;47690;39.202;-77.198;2023-02-12T18:25:18;99847.81;;;33.34;8.75
50105;BME280;47690;39.202;-77.198;2023-02-12T18:28:50;99823.34;;;33.16;8.50
50105;BME280;47690;39.202;-77.198;2023-02-12T18:33:14;99810.16;;;33.14;8.55
50105;BME280;47690;39.202;-77.198;2023-02-12T18:42:18;99796.44;;;33.17;8.66
50105;BME280;47690;39.202;-77.198;2023-02-12T18:45:49;99802.81;;;33.01;8.42
50105;BME280;47690;39.202;-77.198;2023-02-12T18:49:42;99803.72;;;33.08;8.40
50105;BME280;47690;39.202;-77.198;2023-02-12T18:52:45;99810.16;;;33.29;8.85
50105;BME280;47690;39.202;-77.198;2023-02-12T18:55:50;99821.06;;;33.58;8.28
50105;BME280;47690;39.202;-77.198;2023-02-12T18:59:15;99821.97;;;33.35;8.52
50105;BME280;47690;39.202;-77.198;2023-02-12T19:02:26;99829.47;;;33.16;8.76
50105;BME280;47690;39.202;-77.198;2023-02-12T19:05:33;99811.94;;;33.22;9.03
50105;BME280;47690;39.202;-77.198;2023-02-12T19:08:42;99816.81;;;33.33;8.92
50105;BME280;47690;39.202;-77.198;2023-02-12T19:12:14;99814.66;;;33.44;9.01
50105;BME280;47690;39.202;-77.198;2023-02-12T19:15:49;99798.88;;;33.42;8.83
50105;BME280;47690;39.202;-77.198;2023-02-12T19:18:55;99805.75;;;33.21;9.37
50105;BME280;47690;39.202;-77.198;2023-02-12T19:23:37;99800.50;;;33.43;9.71
50105;BME280;47690;39.202;-77.198;2023-02-12T19:27:23;99791.75;;;33.34;9.53
50105;BME280;47690;39.202;-77.198;2023-02-12T19:31:16;99774.09;;;34.15;9.17
50105;BME280;47690;39.202;-77.198;2023-02-12T19:35:54;99787.91;;;33.37;9.54
50105;BME280;47690;39.202;-77.198;2023-02-12T19:38:58;99790.00;;;33.11;9.54
50105;BME280;47690;39.202;-77.198;2023-02-12T19:42:34;99794.53;;;33.11;9.51
50105;BME280;47690;39.202;-77.198;2023-02-12T19:45:50;99786.59;;;33.03;10.06
50105;BME280;47690;39.202;-77.198;2023-02-12T19:50:10;99767.53;;;33.81;9.80
50105;BME280;47690;39.202;-77.198;2023-02-12T19:54:03;99721.31;;;33.81;9.39
50105;BME280;47690;39.202;-77.198;2023-02-12T19:57:18;99674.94;;;33.67;9.52
50105;BME280;47690;39.202;-77.198;2023-02-12T20:00:45;99646.38;;;33.67;9.46
50105;BME280;47690;39.202;-77.198;2023-02-12T20:03:49;99642.00;;;33.59;9.57
50105;BME280;47690;39.202;-77.198;2023-02-12T20:06:54;99660.78;;;33.51;9.60
50105;BME280;47690;39.202;-77.198;2023-02-12T20:10:06;99654.81;;;33.49;9.29
50105;BME280;47690;39.202;-77.198;2023-02-12T20:13:12;99654.41;;;33.30;10.17
50105;BME280;47690;39.202;-77.198;2023-02-12T20:16:41;99649.38;;;33.42;9.81
50105;BME280;47690;39.202;-77.198;2023-02-12T20:19:49;99632.09;;;33.38;9.41
50105;BME280;47690;39.202;-77.198;2023-02-12T20:22:54;99625.41;;;33.27;9.54
50105;BME280;47690;39.202;-77.198;2023-02-12T20:27:28;99599.84;;;33.55;9.99
50105;BME280;47690;39.202;-77.198;2023-02-12T20:43:54;99541.00;;;33.63;9.86
50105;BME280;47690;39.202;-77.198;2023-02-12T20:48:55;99538.84;;;33.36;9.55
50105;BME280;47690;39.202;-77.198;2023-02-12T20:52:53;99555.50;;;33.17;9.85
50105;BME280;47690;39.202;-77.198;2023-02-12T20:56:52;99550.28;;;33.08;9.33
50105;BME280;47690;39.202;-77.198;2023-02-12T20:59:50;99559.78;;;32.96;9.86
50105;BME280;47690;39.202;-77.198;2023-02-12T21:02:50;99548.09;;;32.97;9.92
50105;BME280;47690;39.202;-77.198;2023-02-12T21:06:26;99564.72;;;33.14;9.55
50105;BME280;47690;39.202;-77.198;2023-02-12T21:09:34;99559.25;;;33.22;9.82